• Join FlightAware (Why Join?)
  • Login
  • US Flag 
08:39AM EDT


 

Airport Tracker/Info


-or-


 

Live Flight TrackerFlight Track Log ✈ UAL4236 ✈ 07-Apr-2013 ✈ KJAN - KIAH

Flight Track Log - Related Links

Times and Time Zones

All times are in EDT time to prevent confusion due to time zone crossing. See the UAL4236 flight status page for this flight to view local times or setup timezone preferences in your user account.

Time Position Orientation Groundspeed Altitude Reporting Facility
EDT Latitude Longitude Course Direction KTS MPH feet Rate Location/Type
06:56AM 32.2331 -90.0406 245° Southwest 358 412 3,400  Level Memphis Center
06:57AM 32.1894 -90.0847 221° Southwest 231 266 6,000 2,700 Climbing Memphis Center
06:58AM 32.1876 -90.3415 239° Southwest  Level FlightAware Approximate
06:58AM 32.1644 -90.1658 250° West 206 237 8,800  Level Memphis Center
06:59AM 32.1509 -90.4316 239° Southwest  Level FlightAware Approximate
06:59AM 32.1333 -90.2444 245° Southwest 244 281 11,000  Level Memphis Center
07:00AM 32.1086 -90.5203 245° Southwest  Level FlightAware Approximate
07:00AM 32.0958 -90.3428 246° West 283 326 12,200  Level Memphis Center
07:01AM 32.0718 -90.6124 245° Southwest  Level FlightAware Approximate
07:01AM 32.0539 -90.4506 245° Southwest 331 381 13,700  Level Memphis Center
07:02AM 32.0119 -90.5631 246° West 362 417 15,200 1,380 Climbing Memphis Center
07:03AM 31.9853 -90.6347 246° West 381 438 16,100 1,380 Climbing Houston Center
07:04AM 31.9422 -90.7481 246° West 382 440 17,600 1,440 Climbing Houston Center
07:05AM 31.8969 -90.8683 246° West 384 442 19,100 1,500 Climbing Houston Center
07:06AM 31.8525 -90.9836 246° West 389 448 20,600 1,440 Climbing Houston Center
07:07AM 31.8083 -91.0997 246° West 389 448 22,100 1,380 Climbing Houston Center
07:08AM 31.7636 -91.2144 245° Southwest 387 445 23,500 900 Climbing Houston Center
07:09AM 31.7192 -91.3311 246° West 390 449 24,000 240 Climbing Houston Center
07:10AM 31.6714 -91.4539 245° Southwest 406 467 24,000  Level Houston Center
07:11AM 31.6225 -91.5794 245° Southwest 420 483 24,000  Level Houston Center
07:12AM 31.5728 -91.7053 245° Southwest 424 488 24,000  Level Houston Center
07:13AM 31.5242 -91.8272 245° Southwest 417 480 24,000  Level Houston Center
07:14AM 31.4775 -91.9472 246° West 408 470 24,000  Level Houston Center
07:15AM 31.4211 -92.0844 244° Southwest 410 472 24,000  Level Houston Center
07:16AM 31.3728 -92.2039 245° Southwest 407 468 24,000  Level Houston Center
07:17AM 31.3247 -92.3239 245° Southwest 409 471 24,000  Level Houston Center
07:18AM 31.2783 -92.4461 246° West 411 473 24,000  Level Houston Center
07:19AM 31.2214 -92.5639 241° Southwest 418 481 24,000  Level Houston Center
07:20AM 31.1589 -92.6756 237° Southwest 411 473 24,000  Level Houston Center
07:21AM 31.0964 -92.7869 237° Southwest 411 473 24,000  Level Houston Center
07:22AM 31.0333 -92.8983 237° Southwest 412 474 24,000  Level Houston Center
07:23AM 30.9706 -93.0108 237° Southwest 415 478 24,000  Level Houston Center
07:24AM 30.9069 -93.1231 237° Southwest 416 479 24,000  Level Houston Center
07:25AM 30.8447 -93.2336 237° Southwest 411 473 24,000  Level Houston Center
07:26AM 30.7822 -93.3450 237° Southwest 413 475 24,000 -300 Level Houston Center
07:27AM 30.7194 -93.4558 237° Southwest 413 475 23,500 -1,200 Descending Houston Center
07:28AM 30.6578 -93.5647 237° Southwest 407 468 21,700 -1,980 Descending Houston Center
07:29AM 30.5853 -93.6922 237° Southwest 400 460 19,600 -1,920 Descending Houston Center
07:30AM 30.5261 -93.7944 236° Southwest 391 450 17,800 -1,740 Descending Houston Center
07:31AM 30.4681 -93.8953 236° Southwest 381 438 16,100 -1,500 Descending Houston Center
07:32AM 30.4103 -93.9967 237° Southwest 378 435 14,800 -1,200 Descending Houston Center
07:33AM 30.3828 -94.0444 236° Southwest 369 425 14,400 -1,020 Descending Houston Center
07:33AM 30.3544 -94.0947 237° Southwest 371 427 13,800 -1,080 Descending Houston Center
07:34AM 30.2858 -94.2100 235° Southwest 370 426 12,600 -900 Descending Houston Center
07:35AM 30.2439 -94.2839 237° Southwest 350 403 12,000 -480 Descending Houston Center
07:36AM 30.2186 -94.3353 240° Southwest 336 387 12,000 -120 Level Houston Center
07:36AM 30.2017 -94.3808 247° West 340 391 11,900 -900 Descending Houston Center
07:37AM 30.1839 -94.4317 248° West 317 365 11,100 -1,500 Descending Houston Center
07:37AM 30.1717 -94.4739 251° West 314 361 10,400 -1,380 Descending Houston Center
07:38AM 30.1547 -94.5200 247° West 275 316 9,700 -1,380 Descending Houston Center
07:38AM 30.1417 -94.5631 251° West 272 313 9,000 -1,500 Descending Houston Center
07:39AM 30.1153 -94.6403 248° West 261 300 7,300 -1,440 Descending Houston Center
07:40AM 30.0894 -94.7153 248° West 254 292 6,200 -1,140 Descending Houston Center
07:41AM 30.0750 -94.7600 250° West 249 287 5,600 -1,140 Descending Houston Center
07:41AM 30.0650 -94.7881 248° West 245 282 5,100 -780 Descending Houston Center
07:42AM 30.0567 -94.8106 247° West 230 265 5,000 -120 Descending Houston Center
07:42AM 30.0428 -94.8525 249° West 221 254 5,000  Level Houston Center
07:43AM 30.0333 -94.8739 243° Southwest 209 241 5,000  Level Houston Center
07:43AM 30.0208 -94.9147 251° West 210 242 5,000 -660 Level Houston Center
07:44AM 29.9994 -94.9789 249° West 214 246 3,900 -1,020 Descending Houston Center
07:45AM 29.9936 -95.0439 264° West 207 238 3,000 -780 Descending Houston Center
07:46AM 29.9939 -95.1086 270° West 204 235 2,400 -660 Descending Houston Center
07:47AM 29.9931 -95.1372 268° West 195 224 2,200 -420 Descending Houston Center
07:47AM 29.9936 -95.1689 271° West 198 228 2,000 -300 Descending Houston Center